OAI weather

Bagram Air Base
Bagram, Parwan Province, Afghanistan

Public forecast

Using degrees Celsius for public forecast. Weather courtesy of forecast.io.

METAR (pilot weather report)

Closest report is Hamid Karzai International Airport, 23.0 nm (42.5 km) S. Retrieved 2019/06/17 19:50 UTC (26 minutes ago):

OAKB 171950Z 02016G26KT 340V060 CAVOK 22/M04 Q1013 NOSIG RMK A2992 BLU BLU

TAF (pilot weather forecast)

Retrieved 2019/06/17 15:01 UTC (5 hours ago):

TAF OAIX 171500Z 1715/1821 34015G25KT 9999 FEW120 520009 QNH2976INS TEMPO 1715/1720 34015G30KT BECMG 1722/1723 34012KT 9999 FEW120 QNH2983INS BECMG 1800/1801 34009KT 9999 SKC QNH2983INS BECMG 1807/1808 34015G25KT 9999 SKC 520009 QNH2977INS TEMPO 1811/1817 34025G35KT 530009 TX33/1810Z TN22/1800Z